createdAt,value
2022-12-20T00:00:51.730Z,1730.00
2022-12-20T00:01:51.864Z,1735.00
2022-12-20T00:02:51.513Z,1731.00
2022-12-20T00:03:51.333Z,1729.00
2022-12-20T00:04:51.239Z,1729.00
2022-12-20T00:05:51.253Z,1733.00
2022-12-20T00:06:51.251Z,1735.00
2022-12-20T00:07:51.046Z,1739.00
2022-12-20T00:08:51.178Z,1735.00
2022-12-20T00:09:53.733Z,1739.00
2022-12-20T00:10:52.687Z,1737.00
2022-12-20T00:11:50.772Z,1736.00
2022-12-20T00:12:50.668Z,1738.00
2022-12-20T00:13:52.424Z,1742.00
2022-12-20T00:14:51.317Z,1740.00
2022-12-20T00:15:50.461Z,1734.00
2022-12-20T00:16:50.366Z,1737.00
2022-12-20T00:17:51.721Z,1743.00
2022-12-20T00:18:50.705Z,1755.00
2022-12-20T00:19:50.211Z,1750.00
2022-12-20T00:20:50.106Z,1749.00
2022-12-20T00:21:50.206Z,1750.00
2022-12-20T00:22:50.202Z,1749.00
2022-12-20T00:23:49.900Z,1745.00
2022-12-20T00:24:49.907Z,1744.00
2022-12-20T00:25:50.347Z,1746.00
2022-12-20T00:26:49.819Z,1754.00
2022-12-20T00:27:49.749Z,1751.00
2022-12-20T00:28:49.632Z,1742.00
2022-12-20T00:29:49.864Z,1747.00
2022-12-20T00:30:49.553Z,1752.00
2022-12-20T00:31:49.523Z,1754.00
2022-12-20T00:32:51.325Z,1751.00
2022-12-20T00:33:49.384Z,1757.00
2022-12-20T00:34:49.256Z,1762.00
2022-12-20T00:35:50.798Z,1771.00
2022-12-20T00:36:49.172Z,1775.00
2022-12-20T00:37:49.079Z,1774.00
2022-12-20T00:38:49.310Z,1774.00
2022-12-20T00:39:49.007Z,1771.00
2022-12-20T00:40:48.911Z,1770.00
2022-12-20T00:41:49.326Z,1773.00
2022-12-20T00:42:48.821Z,1774.00
2022-12-20T00:43:48.707Z,1780.00
2022-12-20T00:44:48.623Z,1779.00
2022-12-20T00:45:48.851Z,1779.00
2022-12-20T00:46:48.610Z,1779.00
2022-12-20T00:47:48.444Z,1784.00
2022-12-20T00:48:48.845Z,1784.00
2022-12-20T00:49:48.367Z,1790.00
2022-12-20T00:50:48.274Z,1787.00
2022-12-20T00:51:48.160Z,1792.00
2022-12-20T00:52:48.868Z,1796.00
2022-12-20T00:53:48.058Z,1796.00
2022-12-20T00:54:47.965Z,1800.00
2022-12-20T00:55:49.827Z,1802.00
2022-12-20T00:56:48.819Z,1804.00
2022-12-20T00:57:47.806Z,1809.00
2022-12-20T00:58:47.700Z,1806.00
2022-12-20T00:59:48.299Z,1804.00
2022-12-20T01:00:53.854Z,1805.00
2022-12-20T01:01:48.706Z,1807.00
2022-12-20T01:02:47.924Z,1801.00
2022-12-20T01:03:47.992Z,1802.00
2022-12-20T01:04:47.316Z,1802.00
2022-12-20T01:05:47.245Z,1802.00
2022-12-20T01:06:47.332Z,1799.00
2022-12-20T01:07:47.145Z,1801.00
2022-12-20T01:08:47.333Z,1808.00
2022-12-20T01:09:47.037Z,1813.00
2022-12-20T01:10:46.960Z,1817.00
2022-12-20T01:11:50.353Z,1818.00
2022-12-20T01:12:46.853Z,1818.00
2022-12-20T01:13:47.383Z,1822.00
2022-12-20T01:14:46.861Z,1824.00
2022-12-20T01:15:46.682Z,1825.00
2022-12-20T01:16:46.958Z,1823.00
2022-12-20T01:17:48.341Z,1827.00
2022-12-20T01:18:46.512Z,1826.00
2022-12-20T01:19:47.326Z,1832.00
2022-12-20T01:20:46.832Z,1828.00
2022-12-20T01:21:46.326Z,1830.00
2022-12-20T01:22:47.806Z,1836.00
2022-12-20T01:23:46.219Z,1834.00
2022-12-20T01:24:46.128Z,1835.00
2022-12-20T01:25:46.343Z,1837.00
2022-12-20T01:26:46.054Z,1833.00
2022-12-20T01:27:45.957Z,1833.00
2022-12-20T01:28:46.363Z,1833.00
2022-12-20T01:29:45.866Z,1835.00
2022-12-20T01:30:45.763Z,1837.00
2022-12-20T01:31:45.923Z,1841.00
2022-12-20T01:32:45.665Z,1850.00
2022-12-20T01:33:45.577Z,1850.00
2022-12-20T01:34:45.873Z,1850.00
2022-12-20T01:35:47.307Z,1850.00
2022-12-20T01:36:45.365Z,1854.00
2022-12-20T01:37:45.285Z,1857.00
2022-12-20T01:38:46.841Z,1863.00
2022-12-20T01:39:45.216Z,1863.00
2022-12-20T01:40:45.137Z,1865.00
2022-12-20T01:41:44.999Z,1866.00
2022-12-20T01:42:45.306Z,1869.00
2022-12-20T01:43:44.906Z,1874.00
2022-12-20T01:44:44.834Z,1875.00
2022-12-20T01:45:45.600Z,1872.00
2022-12-20T01:46:44.647Z,1868.00
2022-12-20T01:47:44.524Z,1869.00
2022-12-20T01:48:44.830Z,1872.00
2022-12-20T01:49:44.536Z,1876.00
2022-12-20T01:50:44.855Z,1880.00
2022-12-20T01:51:44.450Z,1884.00
2022-12-20T01:52:44.354Z,1889.00
2022-12-20T01:53:44.372Z,1894.00
2022-12-20T01:54:44.297Z,1893.00
2022-12-20T01:55:44.192Z,1896.00
2022-12-20T01:56:47.365Z,1896.00
2022-12-20T01:57:44.103Z,1898.00
2022-12-20T01:58:44.002Z,1901.00
2022-12-20T01:59:45.828Z,1901.00
2022-12-20T02:00:43.962Z,1901.00
2022-12-20T02:01:43.893Z,1904.00
2022-12-20T02:02:44.499Z,1910.00
2022-12-20T02:03:44.398Z,1921.00
2022-12-20T02:04:43.660Z,1926.00
2022-12-20T02:05:44.262Z,1921.00
2022-12-20T02:06:43.547Z,1920.00
2022-12-20T02:07:43.463Z,1926.00
2022-12-20T02:08:43.842Z,1925.00
2022-12-20T02:09:43.330Z,1923.00
2022-12-20T02:10:43.277Z,1927.00
2022-12-20T02:11:43.380Z,1922.00
2022-12-20T02:12:43.150Z,1923.00
2022-12-20T02:13:43.081Z,1930.00
2022-12-20T02:14:43.273Z,1936.00
2022-12-20T02:15:42.987Z,1939.00
2022-12-20T02:16:42.973Z,1946.00
2022-12-20T02:17:42.896Z,1946.00
2022-12-20T02:18:42.781Z,1949.00
2022-12-20T02:19:44.357Z,1945.00
2022-12-20T02:20:44.382Z,1941.00
2022-12-20T02:21:42.590Z,1942.00
2022-12-20T02:22:42.536Z,1943.00
2022-12-20T02:24:42.435Z,1942.00
2022-12-20T02:25:42.309Z,1948.00
2022-12-20T02:26:42.360Z,1950.00
2022-12-20T02:28:42.145Z,1946.00
2022-12-20T02:29:42.350Z,1950.00
2022-12-20T02:30:42.078Z,1953.00
2022-12-20T02:31:42.057Z,1959.00
2022-12-20T02:32:42.362Z,1955.00
2022-12-20T02:33:41.862Z,1954.00
2022-12-20T02:41:42.840Z,1975.00
2022-12-20T02:42:41.318Z,1977.00
2022-12-20T02:43:41.232Z,1977.00
2022-12-20T02:44:41.825Z,1977.00
2022-12-20T02:45:41.172Z,1979.00
2022-12-20T02:46:41.049Z,1976.00
2022-12-20T02:47:41.333Z,1971.00
2022-12-20T02:48:40.931Z,1970.00
2022-12-20T02:49:41.381Z,1975.00
2022-12-20T02:50:40.837Z,1977.00
2022-12-20T02:51:40.755Z,1977.00
2022-12-20T02:52:42.634Z,1979.00
2022-12-20T02:53:42.869Z,1980.00
2022-12-20T02:54:40.765Z,1978.00
2022-12-20T02:55:40.673Z,1986.00
2022-12-20T02:56:40.928Z,1985.00
2022-12-20T02:57:40.592Z,1990.00
2022-12-20T02:58:40.515Z,1990.00
2022-12-20T02:59:42.351Z,1986.00
2022-12-20T03:00:40.419Z,1990.00
2022-12-20T03:01:40.445Z,1991.00
2022-12-20T03:02:40.671Z,1992.00
2022-12-20T03:03:40.280Z,1994.00
2022-12-20T03:04:40.115Z,1997.00
2022-12-20T03:05:40.840Z,1999.00
2022-12-20T03:06:40.034Z,2004.00
2022-12-20T03:07:39.929Z,2011.00
2022-12-20T03:08:40.355Z,2012.00
2022-12-20T03:09:39.881Z,2017.00
2022-12-20T03:10:39.762Z,2027.00
2022-12-20T03:11:39.881Z,2025.00
2022-12-20T03:12:39.679Z,2023.00
2022-12-20T03:13:39.560Z,2022.00
2022-12-20T03:14:39.874Z,2020.00
2022-12-20T03:15:39.490Z,2023.00
2022-12-20T03:16:39.952Z,2028.00
2022-12-20T03:17:39.390Z,2035.00
2022-12-20T03:18:39.315Z,2037.00
2022-12-20T03:19:39.405Z,2035.00
2022-12-20T03:20:39.241Z,2038.00
2022-12-20T03:21:40.838Z,2044.00
2022-12-20T03:22:39.131Z,2045.00
2022-12-20T03:23:39.040Z,2048.00
2022-12-20T03:24:39.868Z,2051.00
2022-12-20T03:25:38.920Z,2052.00
2022-12-20T03:26:39.364Z,2051.00
2022-12-20T03:27:38.836Z,2057.00
2022-12-20T03:28:38.752Z,2060.00
2022-12-20T03:29:38.849Z,2058.00
2022-12-20T03:30:38.701Z,2058.00
2022-12-20T03:31:38.591Z,2069.00
2022-12-20T03:32:38.890Z,2078.00
2022-12-20T03:33:38.489Z,2091.00
2022-12-20T03:34:38.911Z,2088.00
2022-12-20T03:35:38.401Z,2088.00
2022-12-20T03:36:38.284Z,2089.00
2022-12-20T03:37:38.414Z,2089.00
2022-12-20T03:38:38.208Z,2093.00
2022-12-20T03:39:38.434Z,2099.00
2022-12-20T03:40:38.100Z,2101.00
2022-12-20T03:41:38.041Z,2107.00
2022-12-20T03:42:39.875Z,2104.00
2022-12-20T03:43:37.961Z,2111.00
2022-12-20T03:44:39.416Z,2111.00
2022-12-20T03:45:39.389Z,2147.00
2022-12-20T03:46:37.803Z,2234.00
2022-12-20T03:47:38.559Z,2209.00
2022-12-20T03:48:37.662Z,2130.00
2022-12-20T03:49:37.563Z,2125.00
2022-12-20T03:50:37.875Z,2124.00
2022-12-20T03:51:37.469Z,2119.00
2022-12-20T03:52:37.396Z,2122.00
2022-12-20T03:53:37.392Z,2123.00
2022-12-20T03:54:37.277Z,2132.00
2022-12-20T03:55:37.209Z,2137.00
2022-12-20T03:56:37.395Z,2153.00
2022-12-20T03:57:37.110Z,2210.00
2022-12-20T03:58:36.991Z,2184.00
2022-12-20T03:59:37.410Z,2156.00
2022-12-20T04:00:36.918Z,2134.00
2022-12-20T04:01:36.973Z,2127.00
2022-12-20T04:02:37.185Z,2134.00
2022-12-20T04:03:36.809Z,2131.00
2022-12-20T04:04:36.644Z,2133.00
2022-12-20T04:05:36.542Z,2136.00
2022-12-20T04:06:38.375Z,2143.00
2022-12-20T04:07:36.435Z,2139.00
2022-12-20T04:08:36.356Z,2141.00
2022-12-20T04:09:36.863Z,2143.00
2022-12-20T04:10:36.265Z,2139.00
2022-12-20T04:11:36.199Z,2137.00
2022-12-20T04:12:36.068Z,2138.00
2022-12-20T04:13:36.407Z,2139.00
2022-12-20T04:14:36.429Z,2142.00
2022-12-20T04:15:35.909Z,2136.00
2022-12-20T04:16:35.876Z,2131.00
2022-12-20T04:17:35.929Z,2138.00
2022-12-20T04:18:35.690Z,2135.00
2022-12-20T04:19:35.642Z,2137.00
2022-12-20T13:38:53.958Z,1167.00
2022-12-20T13:39:53.902Z,990.00
2022-12-20T13:40:53.786Z,1249.00
2022-12-20T13:41:53.665Z,941.00
2022-12-20T13:42:53.556Z,909.00
2022-12-20T13:43:53.455Z,929.00
2022-12-20T13:44:53.303Z,894.00
2022-12-20T13:45:53.286Z,1148.00
2022-12-20T13:46:53.041Z,950.00
2022-12-20T13:47:52.921Z,930.00
2022-12-20T13:48:52.745Z,927.00
2022-12-20T13:49:52.625Z,876.00
2022-12-20T13:50:52.465Z,871.00
2022-12-20T13:51:52.323Z,1180.00
2022-12-20T13:52:52.177Z,959.00
2022-12-20T13:53:52.031Z,918.00
2022-12-20T13:54:51.887Z,901.00
2022-12-20T13:55:51.745Z,892.00
2022-12-20T13:56:51.626Z,886.00
2022-12-20T13:57:51.455Z,877.00
2022-12-20T13:58:51.311Z,869.00
2022-12-20T13:59:51.158Z,860.00
2022-12-20T14:00:51.085Z,850.00
2022-12-20T14:01:50.938Z,840.00
2022-12-20T14:02:50.800Z,835.00
2022-12-20T14:03:50.702Z,833.00
2022-12-20T14:04:50.469Z,833.00
2022-12-20T14:05:50.296Z,832.00
2022-12-20T14:06:50.212Z,826.00
2022-12-20T14:07:50.023Z,825.00
2022-12-20T14:08:49.879Z,822.00
2022-12-20T14:09:49.734Z,817.00
2022-12-20T14:10:49.603Z,810.00
2022-12-20T14:11:49.441Z,810.00
2022-12-20T14:12:51.021Z,805.00
2022-12-20T14:13:49.159Z,801.00
2022-12-20T14:14:49.019Z,798.00
2022-12-20T14:15:48.898Z,797.00
2022-12-20T14:16:48.777Z,796.00
2022-12-20T14:17:48.612Z,797.00
2022-12-20T14:18:48.487Z,799.00
2022-12-20T14:19:48.315Z,797.00
2022-12-20T14:20:48.173Z,797.00
2022-12-20T14:21:48.037Z,793.00
2022-12-20T14:22:47.915Z,792.00
2022-12-20T14:23:47.760Z,790.00
2022-12-20T14:24:47.619Z,784.00
2022-12-20T14:25:47.505Z,779.00
2022-12-20T14:26:47.357Z,776.00
2022-12-20T14:27:47.212Z,774.00
2022-12-20T14:28:47.079Z,774.00
2022-12-20T14:29:46.930Z,773.00
2022-12-20T14:30:46.862Z,771.00
2022-12-20T14:31:46.673Z,767.00
2022-12-20T14:32:46.524Z,763.00
2022-12-20T14:33:46.381Z,765.00
2022-12-20T14:34:46.235Z,814.00
2022-12-20T14:35:46.102Z,795.00
2022-12-20T14:36:45.974Z,789.00
2022-12-20T14:37:45.834Z,788.00
2022-12-20T14:38:45.677Z,785.00
2022-12-20T14:39:45.538Z,781.00
2022-12-20T14:40:50.423Z,782.00
2022-12-20T14:41:46.259Z,782.00
2022-12-20T14:42:45.111Z,783.00
2022-12-20T14:43:44.990Z,783.00
2022-12-20T14:44:44.839Z,780.00
2022-12-20T14:45:44.752Z,781.00
2022-12-20T14:46:48.834Z,778.00
2022-12-20T14:47:44.422Z,776.00
2022-12-20T14:48:44.294Z,772.00
2022-12-20T14:49:44.156Z,769.00
2022-12-20T14:50:44.014Z,768.00
2022-12-20T14:51:43.880Z,764.00
2022-12-20T14:52:43.731Z,762.00
2022-12-20T14:53:43.612Z,762.00
2022-12-20T14:55:44.363Z,767.00
2022-12-20T14:56:43.189Z,768.00
2022-12-20T14:57:43.052Z,763.00
2022-12-20T14:58:42.923Z,760.00
2022-12-20T14:59:42.811Z,758.00
2022-12-20T15:00:42.653Z,755.00
2022-12-20T15:01:44.505Z,752.00
2022-12-20T15:02:42.715Z,749.00
2022-12-20T15:03:42.394Z,748.00
2022-12-20T15:04:42.107Z,746.00
2022-12-20T15:05:41.970Z,746.00
2022-12-20T15:06:41.837Z,746.00
2022-12-20T15:07:41.786Z,746.00
2022-12-20T15:08:41.564Z,747.00
2022-12-20T15:09:41.449Z,750.00
2022-12-20T15:10:41.291Z,751.00
2022-12-20T15:11:41.162Z,752.00
2022-12-20T15:12:42.596Z,750.00
2022-12-20T15:13:40.897Z,750.00
2022-12-20T15:14:40.790Z,749.00
2022-12-20T15:15:40.693Z,748.00
2022-12-20T15:16:40.551Z,746.00
2022-12-20T15:17:40.383Z,744.00
2022-12-20T15:18:40.253Z,744.00
2022-12-20T15:19:42.518Z,746.00
2022-12-20T15:20:39.969Z,749.00
2022-12-20T15:21:39.839Z,750.00
2022-12-20T15:22:39.698Z,747.00
2022-12-20T15:23:39.563Z,747.00
2022-12-20T16:16:40.370Z,702.00
2022-12-20T16:17:40.294Z,705.00
2022-12-20T16:18:40.255Z,706.00
2022-12-20T16:19:40.246Z,707.00
2022-12-20T16:20:40.243Z,706.00
2022-12-20T16:21:40.213Z,701.00
2022-12-20T16:22:40.219Z,702.00
2022-12-20T16:23:40.181Z,702.00
2022-12-20T16:24:40.156Z,699.00
2022-12-20T16:25:40.151Z,700.00
2022-12-20T16:26:40.132Z,697.00
2022-12-20T16:27:40.135Z,698.00
2022-12-20T17:10:27.548Z,668.00
2022-12-20T17:11:27.520Z,667.00
2022-12-20T17:12:27.494Z,664.00
2022-12-20T17:13:27.496Z,662.00
2022-12-20T17:14:27.473Z,660.00
2022-12-20T17:15:27.461Z,659.00
2022-12-20T17:16:27.518Z,659.00
2022-12-20T17:17:27.436Z,657.00
2022-12-20T17:18:27.433Z,656.00
2022-12-20T17:19:27.400Z,655.00
2022-12-20T17:20:31.017Z,656.00
2022-12-20T17:21:28.381Z,654.00
2022-12-20T17:22:27.357Z,652.00
2022-12-20T17:23:42.086Z,652.00
2022-12-20T17:24:27.327Z,650.00
2022-12-20T17:25:27.333Z,649.00
2022-12-20T17:26:27.326Z,652.00
2022-12-20T17:27:27.291Z,651.00
2022-12-20T17:28:27.307Z,650.00
2022-12-20T17:29:27.266Z,647.00
2022-12-20T17:30:27.268Z,644.00
2022-12-20T17:31:27.290Z,643.00
2022-12-20T17:32:27.242Z,644.00
2022-12-20T17:33:27.226Z,644.00
2022-12-20T17:34:27.226Z,643.00
2022-12-20T17:35:27.206Z,639.00
2022-12-20T17:36:29.718Z,637.00
2022-12-20T21:33:24.492Z,574.00
2022-12-20T21:34:24.488Z,575.00
2022-12-20T21:35:24.455Z,574.00
2022-12-20T21:36:25.195Z,576.00
2022-12-20T21:37:24.441Z,577.00
2022-12-20T21:38:24.448Z,576.00
2022-12-20T21:39:24.418Z,577.00
2022-12-20T21:40:24.410Z,578.00
2022-12-20T21:41:24.414Z,579.00
2022-12-20T21:42:24.404Z,581.00
2022-12-20T21:43:24.400Z,580.00
2022-12-20T21:44:24.384Z,579.00
2022-12-20T21:45:24.389Z,578.00
2022-12-20T21:46:24.416Z,576.00
2022-12-20T21:47:24.370Z,573.00
2022-12-20T21:48:24.373Z,574.00
2022-12-20T21:49:24.355Z,574.00
2022-12-20T21:50:24.347Z,577.00
2022-12-20T21:51:24.355Z,578.00
2022-12-20T21:52:24.355Z,577.00
2022-12-20T21:53:24.342Z,576.00
2022-12-20T21:54:24.349Z,574.00
2022-12-20T21:55:24.341Z,573.00
2022-12-20T21:56:24.334Z,574.00
2022-12-20T21:57:24.324Z,577.00
2022-12-20T21:58:24.325Z,576.00
2022-12-20T21:59:24.306Z,576.00
2022-12-20T22:00:24.361Z,576.00
2022-12-20T22:01:24.428Z,577.00
2022-12-20T22:02:24.412Z,572.00
2022-12-20T22:03:24.475Z,572.00
2022-12-20T22:04:24.264Z,570.00
2022-12-20T22:05:24.259Z,572.00
2022-12-20T22:06:24.248Z,573.00
2022-12-20T22:07:24.231Z,574.00
2022-12-20T22:08:24.228Z,573.00
2022-12-20T22:09:24.230Z,573.00
2022-12-20T22:10:24.219Z,572.00
2022-12-20T22:11:24.211Z,570.00
2022-12-20T22:12:24.226Z,570.00
2022-12-20T22:13:24.205Z,570.00
2022-12-20T22:14:24.219Z,569.00
2022-12-20T22:15:24.197Z,568.00
2022-12-20T22:16:24.247Z,568.00
2022-12-20T22:17:24.206Z,567.00
2022-12-20T22:18:24.194Z,567.00
2022-12-20T22:19:24.185Z,566.00
2022-12-20T22:20:24.182Z,566.00
2022-12-20T22:21:24.203Z,564.00
2022-12-20T22:22:24.188Z,564.00
2022-12-20T22:23:24.175Z,564.00
2022-12-20T22:24:24.187Z,567.00
2022-12-20T22:25:24.163Z,568.00
2022-12-20T22:26:24.158Z,569.00
2022-12-20T22:27:24.228Z,573.00
2022-12-20T22:28:24.163Z,574.00
2022-12-20T22:29:24.161Z,575.00
2022-12-20T22:30:24.151Z,573.00
2022-12-20T22:31:24.186Z,572.00
2022-12-20T22:32:24.138Z,569.00
2022-12-20T22:33:24.132Z,569.00
2022-12-20T22:34:24.144Z,569.00
2022-12-20T22:35:24.123Z,567.00
2022-12-20T22:36:24.125Z,566.00
2022-12-20T22:37:24.120Z,566.00
2022-12-20T22:38:24.117Z,565.00
2022-12-20T22:39:24.107Z,564.00
2022-12-20T22:40:24.099Z,564.00
2022-12-20T22:41:24.107Z,565.00
2022-12-20T22:42:24.096Z,564.00
2022-12-20T22:43:24.102Z,564.00
2022-12-20T22:44:24.094Z,562.00
2022-12-20T22:45:24.068Z,561.00
2022-12-20T22:46:24.146Z,564.00
2022-12-20T22:47:24.066Z,565.00
2022-12-20T22:48:24.061Z,566.00
2022-12-20T22:49:24.044Z,564.00
2022-12-20T22:50:24.045Z,559.00
2022-12-20T22:51:24.028Z,560.00
2022-12-20T22:52:24.025Z,563.00
2022-12-20T22:53:24.030Z,562.00
2022-12-20T22:54:24.028Z,562.00
2022-12-20T22:55:24.010Z,563.00
2022-12-20T22:56:24.016Z,563.00
2022-12-20T22:57:24.012Z,563.00
2022-12-20T22:58:24.030Z,561.00
2022-12-20T22:59:24.008Z,560.00
2022-12-20T23:00:24.015Z,560.00
2022-12-20T23:01:24.250Z,561.00
2022-12-20T23:02:24.240Z,560.00
2022-12-20T23:03:24.044Z,562.00
2022-12-20T23:22:23.916Z,565.00
2022-12-20T23:23:23.896Z,564.00
2022-12-20T23:24:23.898Z,564.00
2022-12-20T23:25:23.896Z,562.00
2022-12-20T23:26:23.883Z,563.00
2022-12-20T23:27:23.871Z,563.00
2022-12-20T23:28:23.894Z,563.00
2022-12-20T23:29:23.859Z,565.00
2022-12-20T23:30:23.857Z,564.00
2022-12-20T23:31:23.890Z,564.00
2022-12-20T23:32:23.849Z,561.00
2022-12-20T23:33:23.872Z,562.00
2022-12-20T23:34:23.848Z,563.00
2022-12-20T23:35:23.832Z,565.00
2022-12-20T23:36:23.839Z,566.00
2022-12-20T23:37:23.844Z,566.00
2022-12-20T23:38:23.850Z,563.00
2022-12-20T23:39:23.827Z,562.00
2022-12-20T23:40:23.831Z,563.00
2022-12-20T23:41:23.827Z,561.00
2022-12-20T23:42:23.827Z,560.00
2022-12-20T23:43:23.835Z,559.00
2022-12-20T23:44:23.848Z,559.00
2022-12-20T23:45:23.826Z,557.00
2022-12-20T23:46:23.886Z,557.00
2022-12-20T23:47:23.839Z,557.00
2022-12-20T23:48:23.826Z,557.00
2022-12-20T23:49:23.817Z,558.00
2022-12-20T23:50:23.815Z,558.00
2022-12-20T23:51:23.852Z,559.00
2022-12-20T23:52:23.815Z,560.00
2022-12-20T23:53:23.805Z,557.00
2022-12-20T23:54:23.830Z,555.00
2022-12-20T23:55:23.801Z,552.00
2022-12-20T23:56:23.800Z,552.00
2022-12-20T23:57:23.800Z,554.00
2022-12-20T23:58:23.799Z,555.00
